Time;durP1;ratioP1;P1;durP2;ratioP2;P2;SDS_P1;SDS_P2;PMS_P1;PMS_P2;Temp;Humidity;BMP_temperature;BMP_pressure;BME280_temperature;BME280_humidity;BME280_pressure;Samples;Min_cycle;Max_cycle;Signal;HPM_P1;HPM_P2
2021/09/03 00:01:12;;;;;;;1.58;1.40;;;24.90;62.80;;;;;;5083899;28;20020;-36
2021/09/03 00:03:39;;;;;;;1.30;1.20;;;24.80;62.70;;;;;;5084486;28;20040;-36
2021/09/03 00:06:05;;;;;;;1.30;1.20;;;24.90;62.90;;;;;;5054762;28;20043;-36
2021/09/03 00:08:31;;;;;;;1.30;1.20;;;24.90;63.00;;;;;;5048843;28;20500;-36
2021/09/03 00:10:57;;;;;;;1.13;1.10;;;24.90;63.00;;;;;;5046539;28;20029;-36
2021/09/03 00:13:25;;;;;;;1.00;1.00;;;24.90;63.00;;;;;;5071188;28;20025;-36
2021/09/03 00:15:52;;;;;;;1.88;1.10;;;24.90;63.10;;;;;;5084011;28;20058;-36
2021/09/03 00:18:18;;;;;;;1.40;1.30;;;24.90;63.20;;;;;;5084286;28;20032;-37
2021/09/03 00:20:44;;;;;;;1.30;1.20;;;24.90;63.30;;;;;;5084438;28;20024;-36
2021/09/03 00:23:10;;;;;;;1.23;1.13;;;24.90;64.00;;;;;;5076506;28;20033;-36
2021/09/03 00:25:36;;;;;;;1.50;1.40;;;25.00;63.50;;;;;;5063906;28;20025;-36
2021/09/03 00:28:02;;;;;;;1.52;1.42;;;25.00;63.60;;;;;;5063956;28;20049;-37
2021/09/03 00:30:29;;;;;;;2.07;1.37;;;25.00;63.60;;;;;;5064132;28;20017;-37
2021/09/03 00:32:55;;;;;;;1.27;1.17;;;24.90;63.60;;;;;;5071065;28;20021;-36
2021/09/03 00:35:21;;;;;;;1.30;1.20;;;25.00;63.70;;;;;;5083618;28;20067;-36
2021/09/03 00:37:47;;;;;;;1.25;1.15;;;25.00;63.70;;;;;;5083893;28;20094;-36
2021/09/03 00:40:13;;;;;;;1.40;1.30;;;25.00;63.70;;;;;;5083681;28;20030;-36
2021/09/03 00:42:40;;;;;;;1.77;1.47;;;25.00;63.70;;;;;;5083814;28;20552;-37
2021/09/03 00:45:09;;;;;;;1.40;1.30;;;25.00;63.70;;;;;;5083589;28;20474;-36
2021/09/03 00:47:35;;;;;;;1.63;1.35;;;25.00;63.70;;;;;;5083630;28;20048;-36
2021/09/03 00:50:01;;;;;;;1.40;1.30;;;25.00;63.80;;;;;;5083695;28;20020;-36
2021/09/03 00:52:28;;;;;;;1.70;1.50;;;25.00;63.90;;;;;;5083571;28;20025;-36
2021/09/03 00:54:57;;;;;;;3.22;1.48;;;25.00;63.90;;;;;;5065257;28;20063;-36
2021/09/03 00:57:23;;;;;;;1.58;1.48;;;25.00;64.10;;;;;;5083608;28;20031;-36
2021/09/03 00:59:53;;;;;;;1.50;1.40;;;25.00;64.10;;;;;;5083459;28;20019;-36
2021/09/03 01:02:20;;;;;;;1.48;1.38;;;25.00;64.10;;;;;;5083344;28;20033;-36
2021/09/03 01:04:49;;;;;;;3.33;1.48;;;25.00;64.10;;;;;;5053061;28;20096;-36
2021/09/03 01:07:15;;;;;;;1.70;1.60;;;25.00;64.10;;;;;;5066038;28;20092;-36
2021/09/03 01:09:41;;;;;;;1.73;1.63;;;25.00;64.10;;;;;;5083576;28;20092;-36
2021/09/03 01:12:07;;;;;;;2.45;1.52;;;25.00;64.20;;;;;;5083206;28;20024;-36
2021/09/03 01:14:34;;;;;;;1.63;1.30;;;25.00;64.20;;;;;;5064931;28;20472;-36
2021/09/03 01:17:00;;;;;;;2.55;1.50;;;25.00;64.20;;;;;;5083349;28;20024;-37
2021/09/03 01:19:26;;;;;;;2.42;1.38;;;25.00;64.20;;;;;;5083222;28;20034;-36
2021/09/03 01:21:52;;;;;;;1.50;1.40;;;25.10;64.20;;;;;;5083342;28;20029;-36
2021/09/03 01:24:19;;;;;;;1.77;1.63;;;25.00;64.20;;;;;;5064923;28;20516;-36
2021/09/03 01:26:45;;;;;;;1.60;1.50;;;25.00;64.20;;;;;;5083245;28;20029;-36
2021/09/03 01:29:12;;;;;;;1.80;1.70;;;25.00;64.20;;;;;;5083251;28;20063;-36
2021/09/03 01:31:39;;;;;;;2.25;1.67;;;25.00;64.30;;;;;;5083057;28;20035;-36
2021/09/03 01:34:05;;;;;;;1.75;1.65;;;25.00;64.30;;;;;;5082981;28;20135;-37
2021/09/03 01:36:32;;;;;;;1.63;1.53;;;25.00;64.30;;;;;;5067489;28;20036;-36
2021/09/03 01:38:58;;;;;;;1.77;1.67;;;25.10;64.40;;;;;;5062940;28;20025;-37
2021/09/03 01:41:25;;;;;;;1.90;1.70;;;25.00;64.40;;;;;;5062796;28;20028;-36
2021/09/03 01:43:51;;;;;;;2.67;1.77;;;25.10;64.40;;;;;;5062997;28;20045;-36
2021/09/03 01:46:17;;;;;;;1.90;1.70;;;25.00;64.40;;;;;;5062599;28;20033;-38
2021/09/03 01:48:43;;;;;;;2.65;2.00;;;25.10;64.60;;;;;;5062891;28;20036;-36
2021/09/03 01:51:10;;;;;;;3.03;1.80;;;25.00;64.60;;;;;;5062775;28;20032;-36
2021/09/03 01:53:36;;;;;;;2.07;1.70;;;25.00;64.60;;;;;;5062775;28;20033;-36
2021/09/03 01:56:02;;;;;;;2.15;1.95;;;25.00;64.60;;;;;;5064571;28;20566;-36
2021/09/03 01:58:28;;;;;;;1.80;1.70;;;25.00;64.60;;;;;;5082825;28;20127;-37
2021/09/03 02:00:55;;;;;;;3.53;1.70;;;25.00;64.60;;;;;;5082810;28;20036;-36
2021/09/03 02:03:21;;;;;;;2.15;1.95;;;25.00;64.60;;;;;;5082203;28;20043;-36
2021/09/03 02:05:47;;;;;;;1.75;1.65;;;25.00;64.60;;;;;;5071623;28;20024;-36
2021/09/03 02:08:13;;;;;;;2.92;1.80;;;25.00;64.60;;;;;;5081041;28;20052;-37
2021/09/03 02:10:39;;;;;;;2.03;1.83;;;25.00;64.60;;;;;;5062892;28;20028;-37
2021/09/03 02:13:05;;;;;;;1.83;1.65;;;25.00;64.60;;;;;;5082746;28;20032;-36
2021/09/03 02:15:32;;;;;;;2.05;1.85;;;25.00;64.60;;;;;;5082419;28;20017;-36
2021/09/03 02:17:58;;;;;;;2.20;2.00;;;25.00;64.70;;;;;;5082496;28;20031;-36
2021/09/03 02:20:24;;;;;;;2.15;1.95;;;25.00;64.80;;;;;;5082462;28;20033;-36
2021/09/03 02:22:50;;;;;;;2.47;2.03;;;25.00;64.90;;;;;;5082397;28;20037;-37
2021/09/03 02:25:19;;;;;;;2.25;2.05;;;25.00;65.00;;;;;;5083953;28;20036;-36
2021/09/03 02:27:45;;;;;;;2.30;1.85;;;25.00;64.90;;;;;;5086096;28;20032;-36
2021/09/03 02:30:12;;;;;;;2.03;1.83;;;25.00;64.90;;;;;;5086045;28;20743;-36
2021/09/03 02:32:38;;;;;;;2.28;1.83;;;25.00;64.90;;;;;;5086092;28;20059;-36
2021/09/03 02:35:05;;;;;;;2.70;1.98;;;25.00;64.90;;;;;;5074447;28;20040;-36
2021/09/03 02:37:31;;;;;;;2.42;1.90;;;25.00;64.90;;;;;;5086023;28;20025;-36
2021/09/03 02:39:57;;;;;;;1.85;1.70;;;25.00;65.10;;;;;;5085964;28;20093;-36
2021/09/03 02:42:23;;;;;;;2.42;1.90;;;25.00;65.10;;;;;;5085793;28;20044;-37
2021/09/03 02:44:49;;;;;;;2.30;2.10;;;25.00;65.10;;;;;;5085589;28;20027;-37
2021/09/03 02:47:15;;;;;;;2.45;1.80;;;25.00;65.10;;;;;;5085856;28;20385;-37
2021/09/03 02:49:41;;;;;;;3.13;1.83;;;25.00;65.20;;;;;;5085615;28;20032;-36
2021/09/03 02:52:08;;;;;;;2.58;2.38;;;24.90;65.20;;;;;;5085753;28;20111;-36
2021/09/03 02:54:34;;;;;;;2.58;2.38;;;24.90;65.30;;;;;;5085352;28;20042;-37
2021/09/03 02:57:00;;;;;;;2.25;2.05;;;24.90;65.30;;;;;;5085397;28;20036;-36
2021/09/03 02:59:26;;;;;;;2.83;2.30;;;24.90;65.40;;;;;;5051161;28;20466;-37
2021/09/03 03:01:52;;;;;;;2.67;2.45;;;24.90;65.40;;;;;;5085463;28;20020;-37
2021/09/03 03:04:18;;;;;;;2.75;2.53;;;24.90;65.50;;;;;;5076938;28;20043;-36
2021/09/03 03:06:44;;;;;;;3.03;2.00;;;24.90;65.50;;;;;;5082513;28;20104;-36
2021/09/03 03:09:11;;;;;;;3.03;2.42;;;24.90;65.40;;;;;;5085459;28;20035;-37
2021/09/03 03:11:37;;;;;;;1.95;1.85;;;24.90;65.50;;;;;;5085212;28;20029;-37
2021/09/03 03:14:09;;;;;;;2.80;2.35;;;24.90;65.40;;;;;;5085483;28;20021;-36
2021/09/03 03:16:35;;;;;;;4.82;2.40;;;24.90;65.40;;;;;;5084821;28;20040;-37
2021/09/03 03:19:01;;;;;;;3.17;2.40;;;24.90;65.50;;;;;;5085167;28;20096;-37
2021/09/03 03:21:27;;;;;;;2.40;2.20;;;24.90;65.40;;;;;;5085094;28;20051;-36
2021/09/03 03:23:54;;;;;;;3.53;2.28;;;24.80;65.50;;;;;;5084840;28;20055;-36
2021/09/03 03:26:20;;;;;;;3.33;2.30;;;24.80;65.50;;;;;;5084811;28;20037;-36
2021/09/03 03:28:46;;;;;;;2.53;2.33;;;24.80;65.40;;;;;;5066981;28;20056;-36
2021/09/03 03:31:12;;;;;;;2.63;2.30;;;24.80;65.50;;;;;;5085138;28;20125;-36
2021/09/03 03:33:38;;;;;;;3.10;2.30;;;24.80;65.30;;;;;;5084806;28;20028;-36
2021/09/03 03:36:04;;;;;;;3.20;2.20;;;24.80;65.20;;;;;;5083369;28;20043;-37
2021/09/03 03:38:31;;;;;;;2.40;2.08;;;24.80;65.20;;;;;;5084705;28;20028;-36
2021/09/03 03:40:57;;;;;;;3.13;2.35;;;24.80;65.60;;;;;;5084840;28;20084;-36
2021/09/03 03:43:23;;;;;;;2.40;2.17;;;24.80;65.50;;;;;;5066746;28;20063;-36
2021/09/03 03:45:49;;;;;;;2.97;2.45;;;24.80;65.50;;;;;;5084499;28;20103;-36
2021/09/03 03:48:15;;;;;;;2.45;1.98;;;24.80;65.70;;;;;;5084461;28;20028;-36
2021/09/03 03:50:41;;;;;;;2.40;2.20;;;24.80;65.60;;;;;;5084525;28;20131;-36
2021/09/03 03:53:11;;;;;;;3.35;2.63;;;24.80;65.70;;;;;;5084445;28;20126;-36
2021/09/03 03:55:37;;;;;;;3.38;2.33;;;24.80;65.50;;;;;;5084130;28;20058;-36
2021/09/03 03:58:04;;;;;;;6.30;2.42;;;24.70;65.40;;;;;;5084187;28;20157;-36
2021/09/03 04:00:30;;;;;;;2.77;2.40;;;24.70;65.30;;;;;;5081096;28;20020;-36
2021/09/03 04:02:56;;;;;;;3.42;2.85;;;24.70;65.20;;;;;;5084383;28;20032;-36
2021/09/03 04:05:22;;;;;;;2.38;2.17;;;24.70;65.10;;;;;;5072721;28;20497;-39
2021/09/03 04:07:48;;;;;;;2.20;2.00;;;24.70;65.10;;;;;;5080594;28;20043;-37
2021/09/03 04:10:14;;;;;;;2.38;2.17;;;24.70;65.00;;;;;;5084291;28;20032;-36
2021/09/03 04:12:40;;;;;;;3.97;2.47;;;24.70;65.00;;;;;;5084098;28;20021;-37
2021/09/03 04:15:07;;;;;;;2.58;2.35;;;24.70;65.00;;;;;;5082554;28;20021;-36
2021/09/03 04:17:33;;;;;;;2.35;2.15;;;24.70;65.10;;;;;;5063785;28;20489;-36
2021/09/03 04:19:59;;;;;;;2.80;2.28;;;24.70;65.10;;;;;;5063758;28;20049;-36
2021/09/03 04:22:25;;;;;;;2.65;2.45;;;24.70;65.20;;;;;;5063649;28;20051;-37
2021/09/03 04:24:51;;;;;;;2.13;1.95;;;24.60;65.20;;;;;;5063844;28;20044;-36
2021/09/03 04:27:18;;;;;;;3.40;2.40;;;24.60;65.20;;;;;;5063667;28;20029;-37
2021/09/03 04:29:44;;;;;;;2.60;2.40;;;24.60;65.20;;;;;;5063851;28;20040;-36
2021/09/03 04:32:10;;;;;;;2.22;2.00;;;24.60;65.20;;;;;;5063664;28;20469;-37
2021/09/03 04:34:36;;;;;;;2.70;2.17;;;24.60;65.20;;;;;;5074051;28;20037;-36
2021/09/03 04:37:02;;;;;;;3.25;2.40;;;24.60;65.20;;;;;;5083389;28;20035;-37
2021/09/03 04:39:28;;;;;;;3.50;2.50;;;24.60;65.20;;;;;;5083544;28;20029;-36
2021/09/03 04:41:55;;;;;;;2.60;2.40;;;24.60;65.20;;;;;;5083628;28;20027;-37
2021/09/03 04:44:21;;;;;;;5.28;2.50;;;24.60;65.20;;;;;;5083428;28;20036;-36
2021/09/03 04:46:47;;;;;;;3.13;2.47;;;24.60;65.20;;;;;;5083172;28;20447;-37
2021/09/03 04:49:13;;;;;;;2.85;2.55;;;24.60;65.20;;;;;;5083138;28;20040;-37
2021/09/03 04:51:39;;;;;;;3.65;2.17;;;24.60;65.20;;;;;;5083408;28;20361;-37
2021/09/03 04:54:05;;;;;;;2.83;2.63;;;24.50;65.90;;;;;;5083320;28;20058;-36
2021/09/03 04:56:31;;;;;;;3.42;2.38;;;24.60;65.30;;;;;;5083125;28;20044;-36
2021/09/03 04:58:58;;;;;;;3.13;2.25;;;24.50;65.20;;;;;;5083018;28;20107;-36
2021/09/03 05:01:24;;;;;;;2.30;2.10;;;24.50;65.20;;;;;;5083325;28;20025;-36
2021/09/03 05:03:50;;;;;;;2.50;2.30;;;24.50;65.30;;;;;;5082934;28;20063;-36
2021/09/03 05:06:17;;;;;;;2.42;2.22;;;24.50;65.30;;;;;;5069604;28;20017;-36
2021/09/03 05:08:43;;;;;;;3.55;2.22;;;24.50;65.40;;;;;;5062852;28;20048;-36
2021/09/03 05:11:09;;;;;;;2.45;2.25;;;24.50;65.30;;;;;;5063154;28;20693;-36
2021/09/03 05:13:35;;;;;;;2.53;2.30;;;24.50;65.30;;;;;;5062979;28;20039;-36
2021/09/03 05:16:01;;;;;;;4.30;2.33;;;24.50;65.30;;;;;;5063018;28;20087;-37
2021/09/03 05:18:28;;;;;;;3.13;2.40;;;24.50;65.40;;;;;;5062841;28;20025;-36
2021/09/03 05:20:54;;;;;;;3.08;2.53;;;24.50;65.50;;;;;;5062823;28;20029;-36
2021/09/03 05:23:20;;;;;;;2.50;2.30;;;24.50;65.50;;;;;;5062696;28;20079;-37
2021/09/03 05:25:46;;;;;;;2.88;2.47;;;24.40;65.40;;;;;;5062489;28;20025;-37
2021/09/03 05:28:12;;;;;;;2.58;2.38;;;24.40;65.40;;;;;;5062765;28;20111;-37
2021/09/03 05:30:39;;;;;;;2.70;2.50;;;24.40;65.40;;;;;;5062931;28;20029;-36
2021/09/03 05:33:05;;;;;;;2.90;2.70;;;24.40;65.50;;;;;;5070877;28;20033;-36
2021/09/03 05:35:31;;;;;;;3.08;2.50;;;24.40;65.50;;;;;;5082604;28;20127;-36
2021/09/03 05:37:59;;;;;;;3.00;2.40;;;24.40;65.50;;;;;;5082501;28;20518;-37
2021/09/03 05:40:26;;;;;;;2.53;2.33;;;24.40;65.50;;;;;;5082715;28;20033;-36
2021/09/03 05:42:52;;;;;;;2.45;2.25;;;24.40;65.50;;;;;;5082976;28;20035;-36
2021/09/03 05:45:18;;;;;;;3.85;2.67;;;24.40;65.60;;;;;;5082595;28;20043;-36
2021/09/03 05:47:44;;;;;;;2.65;2.42;;;24.40;65.60;;;;;;5082497;28;20474;-37
2021/09/03 05:50:11;;;;;;;3.00;2.65;;;24.30;65.60;;;;;;5082609;28;20024;-37
2021/09/03 05:52:37;;;;;;;2.78;2.58;;;24.30;65.60;;;;;;5082654;28;20028;-37
2021/09/03 05:55:04;;;;;;;3.83;2.83;;;24.30;65.60;;;;;;5082573;28;20068;-36
2021/09/03 05:57:30;;;;;;;2.47;2.28;;;24.30;65.70;;;;;;5082618;28;20037;-36
2021/09/03 05:59:57;;;;;;;2.70;2.40;;;24.30;65.70;;;;;;5083570;28;20054;-36
2021/09/03 06:02:23;;;;;;;2.40;2.20;;;24.30;66.00;;;;;;5067485;28;20028;-36
2021/09/03 06:04:49;;;;;;;2.58;2.38;;;24.30;65.70;;;;;;5077412;28;20059;-37
2021/09/03 06:07:15;;;;;;;2.45;2.25;;;24.30;65.80;;;;;;5066300;28;20024;-37
2021/09/03 06:09:41;;;;;;;2.60;2.25;;;24.30;65.80;;;;;;5073251;28;20850;-36
2021/09/03 06:12:07;;;;;;;2.78;2.50;;;24.30;65.80;;;;;;5083099;28;20115;-36
2021/09/03 06:14:33;;;;;;;2.70;2.50;;;24.30;65.80;;;;;;5086339;28;20062;-36
2021/09/03 06:17:00;;;;;;;2.63;2.42;;;24.30;65.80;;;;;;5086216;28;20032;-37
2021/09/03 06:19:26;;;;;;;3.22;2.70;;;24.20;65.80;;;;;;5085998;28;20024;-36
2021/09/03 06:21:52;;;;;;;3.50;2.75;;;24.20;65.90;;;;;;5086093;28;20032;-36
2021/09/03 06:24:31;;;;;;;2.78;2.58;;;24.20;65.90;;;;;;5085827;28;20122;-37
2021/09/03 06:26:59;;;;;;;2.65;2.20;;;24.20;65.90;;;;;;5071951;28;20025;-36
2021/09/03 06:32:24;;;;;;;4.03;2.88;;;24.20;66.00;;;;;;4986809;28;20035;-37
2021/09/03 06:34:55;;;;;;;3.45;2.55;;;24.20;66.10;;;;;;5003549;28;20190;-36
2021/09/03 06:37:21;;;;;;;2.72;2.53;;;24.20;66.10;;;;;;5003926;28;20109;-36
2021/09/03 06:39:48;;;;;;;2.70;2.50;;;24.10;66.10;;;;;;4987207;28;20034;-36
2021/09/03 06:42:14;;;;;;;3.92;2.78;;;24.10;66.10;;;;;;5003714;28;20038;-36
2021/09/03 06:44:40;;;;;;;2.67;2.47;;;24.10;66.10;;;;;;5003636;28;20034;-36
2021/09/03 06:47:07;;;;;;;2.50;2.30;;;24.10;66.10;;;;;;5002818;28;20130;-36
2021/09/03 06:49:33;;;;;;;2.60;2.40;;;24.10;66.10;;;;;;5003531;28;20041;-36
2021/09/03 06:52:01;;;;;;;2.78;2.50;;;24.10;66.10;;;;;;5003550;28;20038;-36
2021/09/03 06:54:27;;;;;;;2.75;2.55;;;24.10;66.10;;;;;;5003270;28;20092;-37
2021/09/03 06:56:53;;;;;;;2.60;2.40;;;24.10;66.20;;;;;;5003610;28;20042;-36
2021/09/03 06:59:19;;;;;;;4.10;2.40;;;24.10;66.20;;;;;;5002939;28;20086;-36
2021/09/03 07:01:45;;;;;;;2.90;2.70;;;24.10;66.20;;;;;;5003260;28;20049;-36
2021/09/03 07:04:11;;;;;;;3.03;2.45;;;24.10;66.20;;;;;;5003250;28;20064;-36
2021/09/03 07:06:38;;;;;;;3.35;2.50;;;24.10;66.20;;;;;;5003275;28;20079;-36
2021/09/03 07:09:05;;;;;;;2.70;2.20;;;24.00;66.20;;;;;;5066545;28;20037;-36
2021/09/03 07:11:31;;;;;;;;;;;24.00;66.30;;;;;;5085552;28;20029;-37
2021/09/03 07:13:58;;;;;;;4.63;2.85;;;24.00;66.30;;;;;;5085281;28;20268;-37
2021/09/03 07:16:25;;;;;;;2.85;2.20;;;24.00;66.30;;;;;;5084953;28;20021;-36
2021/09/03 07:18:51;;;;;;;2.80;2.60;;;24.00;66.40;;;;;;5084829;28;20028;-36
2021/09/03 07:21:17;;;;;;;2.35;2.15;;;24.00;66.30;;;;;;5084994;28;20029;-40
2021/09/03 07:23:43;;;;;;;4.45;2.55;;;24.00;66.30;;;;;;5084939;28;20052;-37
2021/09/03 07:26:09;;;;;;;2.55;2.33;;;24.00;66.40;;;;;;5085132;28;20017;-36
2021/09/03 07:28:35;;;;;;;2.65;2.45;;;24.00;66.50;;;;;;5084797;28;20036;-36
2021/09/03 07:31:01;;;;;;;2.53;2.33;;;24.00;66.50;;;;;;5084373;28;20024;-36
2021/09/03 07:33:28;;;;;;;2.95;2.70;;;24.00;66.50;;;;;;5084880;28;20032;-37
2021/09/03 07:35:54;;;;;;;2.67;2.47;;;23.90;66.50;;;;;;5084659;28;20085;-36
2021/09/03 07:38:21;;;;;;;3.00;2.70;;;23.90;66.40;;;;;;5084761;28;20029;-36
2021/09/03 07:40:48;;;;;;;2.92;2.70;;;23.90;66.50;;;;;;5084669;28;20055;-36
2021/09/03 07:43:15;;;;;;;3.13;2.83;;;23.90;66.50;;;;;;5084674;28;20405;-36
2021/09/03 07:45:41;;;;;;;2.72;2.45;;;23.90;66.50;;;;;;5084348;28;20036;-37
2021/09/03 07:48:08;;;;;;;2.47;2.28;;;23.90;66.60;;;;;;5084641;28;20079;-36
2021/09/03 07:50:34;;;;;;;4.00;2.67;;;23.90;66.60;;;;;;5084343;28;20042;-36
2021/09/03 07:53:01;;;;;;;2.80;2.40;;;23.90;66.60;;;;;;5084550;28;20043;-36
2021/09/03 07:55:27;;;;;;;;;;;23.90;66.70;;;;;;5084448;28;20300;-36
2021/09/03 07:57:53;;;;;;;2.70;2.42;;;23.90;66.70;;;;;;5084121;28;19908;-36
2021/09/03 08:00:20;;;;;;;3.17;2.65;;;23.90;66.70;;;;;;5084492;28;20021;-36
2021/09/03 08:02:48;;;;;;;3.97;3.00;;;23.90;66.80;;;;;;5084024;28;20039;-36
2021/09/03 08:05:14;;;;;;;2.97;2.55;;;23.90;66.80;;;;;;5075900;28;20508;-36
2021/09/03 08:07:44;;;;;;;2.85;2.50;;;23.80;66.80;;;;;;5064204;28;20057;-36
2021/09/03 08:10:11;;;;;;;3.50;2.90;;;23.80;66.80;;;;;;5064132;28;20021;-36
2021/09/03 08:12:37;;;;;;;;;;;23.80;66.80;;;;;;5064451;28;20051;-36
2021/09/03 08:15:06;;;;;;;2.67;2.47;;;23.80;66.90;;;;;;5063803;28;19916;-38
2021/09/03 08:17:33;;;;;;;3.13;2.83;;;23.80;66.90;;;;;;5081467;28;20055;-36
2021/09/03 08:20:00;;;;;;;3.40;2.65;;;23.80;66.90;;;;;;5083941;28;20058;-36
2021/09/03 08:22:27;;;;;;;3.65;2.67;;;23.80;66.90;;;;;;5083121;28;20092;-37
2021/09/03 08:24:53;;;;;;;2.65;2.45;;;23.80;67.00;;;;;;5083836;28;20127;-37
2021/09/03 08:27:19;;;;;;;4.00;2.60;;;23.80;66.90;;;;;;5065357;28;20031;-36
2021/09/03 08:29:46;;;;;;;3.45;2.50;;;23.80;67.00;;;;;;5083690;28;20055;-36
2021/09/03 08:32:13;;;;;;;3.13;2.50;;;23.70;67.00;;;;;;5083632;28;20051;-36
2021/09/03 08:34:39;;;;;;;;;;;23.70;67.00;;;;;;5077402;28;20037;-36
2021/09/03 08:37:05;;;;;;;4.00;2.60;;;23.70;67.10;;;;;;5083362;28;20365;-36
2021/09/03 08:39:31;;;;;;;3.03;2.67;;;23.70;67.10;;;;;;5083732;28;20085;-36
2021/09/03 08:41:57;;;;;;;3.13;2.83;;;23.70;67.20;;;;;;5083615;28;20389;-36
2021/09/03 08:44:24;;;;;;;2.90;2.70;;;23.70;67.10;;;;;;5083340;28;20032;-36
2021/09/03 08:46:50;;;;;;;3.20;2.90;;;23.70;67.30;;;;;;5069780;28;20028;-36
2021/09/03 08:49:16;;;;;;;2.70;2.50;;;23.70;67.30;;;;;;5063391;28;20021;-36
2021/09/03 08:51:42;;;;;;;3.78;3.03;;;23.70;67.30;;;;;;5045448;28;20021;-37
2021/09/03 08:54:08;;;;;;;3.00;2.75;;;23.70;67.30;;;;;;5063323;28;20035;-36
2021/09/03 08:56:34;;;;;;;3.03;2.80;;;23.70;67.30;;;;;;5062012;28;20099;-37
2021/09/03 08:59:00;;;;;;;3.38;2.85;;;23.60;67.30;;;;;;5062377;28;20024;-36
2021/09/03 09:01:27;;;;;;;3.25;2.72;;;23.60;67.30;;;;;;5062291;28;20070;-36
2021/09/03 09:03:53;;;;;;;3.58;3.00;;;23.60;67.40;;;;;;5062224;28;20037;-36
2021/09/03 09:06:26;;;;;;;3.15;2.58;;;23.60;67.30;;;;;;5076021;28;20048;-36
2021/09/03 09:09:08;;;;;;;2.70;2.50;;;23.60;67.40;;;;;;5082413;28;20127;-36
2021/09/03 09:11:36;;;;;;;3.00;2.70;;;23.60;67.40;;;;;;5082388;28;20028;-37
2021/09/03 09:14:10;;;;;;;2.72;2.40;;;23.60;67.50;;;;;;5082426;28;20032;-36
2021/09/03 09:16:39;;;;;;;4.13;2.88;;;23.60;67.50;;;;;;5070315;28;20025;-36
2021/09/03 09:19:05;;;;;;;3.10;2.80;;;23.60;67.60;;;;;;5061993;28;20040;-37
2021/09/03 09:21:38;;;;;;;2.72;2.50;;;23.60;67.60;;;;;;5027908;28;20393;-36
2021/09/03 09:24:08;;;;;;;4.50;2.70;;;23.60;67.60;;;;;;5061917;28;20142;-36
2021/09/03 09:26:47;;;;;;;3.03;2.72;;;23.60;67.60;;;;;;5061775;28;20027;-36
2021/09/03 09:29:31;;;;;;;3.13;2.85;;;23.50;67.60;;;;;;5061972;28;20494;-36
2021/09/03 09:32:07;;;;;;;2.92;2.63;;;23.50;67.60;;;;;;5061868;28;20112;-37
2021/09/03 09:34:35;;;;;;;2.80;2.60;;;23.60;67.60;;;;;;5060667;28;20033;-37
2021/09/03 09:37:03;;;;;;;3.10;2.55;;;23.50;67.70;;;;;;5063393;28;20098;-36
2021/09/03 09:39:41;;;;;;;3.70;2.63;;;23.50;67.70;;;;;;5064301;28;20059;-36
2021/09/03 09:42:08;;;;;;;3.63;2.92;;;23.50;67.70;;;;;;5064334;28;20021;-37
2021/09/03 09:44:35;;;;;;;2.83;2.60;;;23.50;67.70;;;;;;5063526;28;20044;-36
2021/09/03 09:47:08;;;;;;;3.22;2.60;;;23.50;67.80;;;;;;5048461;28;20029;-36
2021/09/03 09:49:38;;;;;;;3.22;2.92;;;23.50;67.80;;;;;;5043832;28;20040;-37
2021/09/03 09:52:08;;;;;;;3.20;2.90;;;23.50;67.80;;;;;;5061943;28;20025;-36
2021/09/03 09:54:34;;;;;;;3.27;2.67;;;23.50;67.80;;;;;;4971634;28;2073052;-37
2021/09/03 09:57:04;;;;;;;3.35;2.60;;;23.40;67.80;;;;;;5075519;28;20040;-37
2021/09/03 09:59:31;;;;;;;3.10;2.85;;;23.40;67.80;;;;;;5082847;28;20029;-36
2021/09/03 10:01:59;;;;;;;3.72;3.00;;;23.40;67.90;;;;;;5082467;28;20437;-36
2021/09/03 10:04:26;;;;;;;3.97;3.17;;;23.40;67.90;;;;;;5082509;28;20063;-36
2021/09/03 10:06:54;;;;;;;3.15;2.80;;;23.40;67.90;;;;;;5063927;28;20084;-36
2021/09/03 10:09:25;;;;;;;3.08;2.60;;;23.40;67.90;;;;;;5044539;28;20033;-37
2021/09/03 10:11:53;;;;;;;2.80;2.60;;;23.40;68.00;;;;;;5062286;28;20028;-36
2021/09/03 10:14:24;;;;;;;4.45;3.03;;;23.40;68.00;;;;;;5062352;28;20029;-36
2021/09/03 10:16:51;;;;;;;2.70;2.50;;;23.30;67.90;;;;;;5075587;28;20128;-37
2021/09/03 10:19:22;;;;;;;4.68;2.92;;;23.30;67.90;;;;;;5072954;28;20029;-37
2021/09/03 10:21:48;;;;;;;3.30;3.00;;;23.30;68.00;;;;;;5045109;28;20056;-36
2021/09/03 10:24:18;;;;;;;3.65;3.30;;;23.30;68.30;;;;;;5027300;28;20052;-36
2021/09/03 10:26:47;;;;;;;3.17;2.90;;;23.30;68.10;;;;;;5065361;28;20036;-36
2021/09/03 10:29:16;;;;;;;3.17;2.83;;;23.30;68.80;;;;;;5062006;28;20808;-36
2021/09/03 10:34:58;;;;;;;3.20;2.90;;;23.30;68.20;;;;;;5049258;28;20033;-36
2021/09/03 10:37:27;;;;;;;2.80;2.60;;;23.30;68.20;;;;;;4961187;29;20393;-36
2021/09/03 10:40:05;;;;;;;3.10;2.80;;;23.30;68.20;;;;;;4961500;29;20064;-37
2021/09/03 10:42:35;;;;;;;3.55;2.88;;;23.30;68.30;;;;;;4961535;29;20170;-36
2021/09/03 10:45:05;;;;;;;2.97;2.67;;;23.30;68.30;;;;;;4961479;28;20066;-36
2021/09/03 10:47:48;;;;;;;3.13;2.75;;;23.20;68.20;;;;;;4966575;28;20113;-37
2021/09/03 10:50:23;;;;;;;2.60;2.40;;;23.30;68.30;;;;;;4984152;28;20046;-37
2021/09/03 10:53:05;;;;;;;3.38;3.08;;;23.20;68.20;;;;;;4984076;28;20058;-36
2021/09/03 10:56:04;;;;;;;3.13;2.83;;;23.20;68.30;;;;;;4982690;28;20157;-37
2021/09/03 10:58:58;;;;;;;3.47;3.17;;;23.20;68.30;;;;;;4983910;28;20027;-36
2021/09/03 11:01:27;;;;;;;5.13;3.08;;;23.20;68.30;;;;;;4983811;28;20041;-36
2021/09/03 11:03:59;;;;;;;2.72;2.53;;;23.20;68.30;;;;;;4983489;28;20043;-37
2021/09/03 11:06:25;;;;;;;3.50;2.78;;;23.20;68.50;;;;;;4983845;28;20023;-36
2021/09/03 11:09:01;;;;;;;4.88;2.80;;;23.20;68.50;;;;;;4983543;28;20034;-37
2021/09/03 11:11:29;;;;;;;4.22;3.00;;;23.20;68.50;;;;;;4983973;28;20046;-37
2021/09/03 11:14:02;;;;;;;3.45;2.90;;;23.20;68.50;;;;;;5008322;28;20037;-37
2021/09/03 11:16:54;;;;;;;3.10;2.80;;;23.10;68.50;;;;;;5075478;28;20020;-37
2021/09/03 11:19:34;;;;;;;3.03;2.80;;;23.10;68.50;;;;;;5084828;28;20027;-36
2021/09/03 11:22:07;;;;;;;3.05;2.78;;;23.10;68.50;;;;;;5085074;28;20501;-37
2021/09/03 11:24:35;;;;;;;3.08;2.78;;;23.10;68.60;;;;;;5084810;28;20048;-36
2021/09/03 11:27:05;;;;;;;3.28;2.60;;;23.10;68.60;;;;;;5085029;28;20021;-36
2021/09/03 11:29:34;;;;;;;3.85;2.88;;;23.10;68.60;;;;;;5084736;28;20025;-36
2021/09/03 11:32:07;;;;;;;3.17;2.80;;;23.10;68.60;;;;;;5084939;28;20023;-37
2021/09/03 11:35:01;;;;;;;3.47;3.17;;;23.10;68.60;;;;;;5084611;28;20036;-36
2021/09/03 11:37:35;;;;;;;5.05;2.95;;;23.10;68.60;;;;;;5064618;28;20029;-36
2021/09/03 11:40:16;;;;;;;2.88;2.60;;;23.10;68.70;;;;;;5064502;28;20025;-37
2021/09/03 11:42:50;;;;;;;3.53;3.22;;;23.10;68.80;;;;;;5064413;28;20062;-36
2021/09/03 11:45:19;;;;;;;3.00;2.80;;;23.10;68.80;;;;;;5047223;28;20806;-36
2021/09/03 11:47:57;;;;;;;3.47;3.17;;;23.10;68.80;;;;;;5084610;28;20036;-36
2021/09/03 11:50:27;;;;;;;3.38;3.05;;;23.10;68.80;;;;;;5084279;28;20032;-36
2021/09/03 11:52:54;;;;;;;3.22;2.95;;;23.10;68.80;;;;;;5084355;28;20109;-36
2021/09/03 11:55:20;;;;;;;3.15;2.85;;;23.10;68.90;;;;;;5084323;28;20075;-37
2021/09/03 11:58:02;;;;;;;3.03;2.73;;;23.00;68.90;;;;;;5083393;28;20028;-36
2021/09/03 12:00:34;;;;;;;2.90;2.70;;;23.00;68.90;;;;;;5069686;28;20454;-37
2021/09/03 12:03:02;;;;;;;3.63;3.33;;;23.00;68.90;;;;;;5064204;28;20033;-36
2021/09/03 12:05:28;;;;;;;3.60;3.10;;;23.00;68.90;;;;;;5052828;28;20062;-36
2021/09/03 12:08:12;;;;;;;3.38;3.08;;;23.00;68.90;;;;;;5066251;28;20025;-36
2021/09/03 12:11:01;;;;;;;4.22;3.10;;;23.00;68.90;;;;;;5083836;28;20701;-36
2021/09/03 12:13:51;;;;;;;3.50;3.13;;;23.00;69.00;;;;;;5084058;28;20071;-36
2021/09/03 12:16:21;;;;;;;3.25;2.95;;;23.00;69.00;;;;;;5061611;28;20459;-37
2021/09/03 12:18:51;;;;;;;3.25;2.95;;;23.00;69.00;;;;;;5063436;28;20088;-36
2021/09/03 12:21:18;;;;;;;4.00;3.22;;;23.00;69.10;;;;;;5063656;28;20036;-37
2021/09/03 12:23:46;;;;;;;;;;;23.00;69.00;;;;;;5029453;28;20535;-36
2021/09/03 12:26:16;;;;;;;3.10;2.80;;;23.00;69.00;;;;;;5063856;28;19908;-36
2021/09/03 12:28:44;;;;;;;3.38;3.00;;;22.90;68.90;;;;;;5046925;28;20029;-37
2021/09/03 12:31:11;;;;;;;;;;;23.00;69.00;;;;;;5065514;28;20017;-37
2021/09/03 12:33:37;;;;;;;4.20;2.83;;;22.90;69.00;;;;;;5063247;28;20373;-37
2021/09/03 12:36:05;;;;;;;3.22;3.00;;;22.90;69.00;;;;;;5055286;28;20056;-36
2021/09/03 12:38:40;;;;;;;3.50;3.20;;;22.90;69.00;;;;;;5083631;28;20032;-36
2021/09/03 12:41:11;;;;;;;5.22;3.42;;;22.90;69.00;;;;;;5083474;28;20104;-36
2021/09/03 12:43:38;;;;;;;3.28;2.95;;;22.90;69.00;;;;;;5083308;28;20040;-36
2021/09/03 12:46:14;;;;;;;3.60;3.30;;;22.90;69.00;;;;;;5076239;28;20017;-36
2021/09/03 12:48:41;;;;;;;3.25;2.80;;;22.90;69.00;;;;;;5075790;28;20095;-37
2021/09/03 12:51:08;;;;;;;4.20;3.00;;;22.90;69.00;;;;;;5064644;28;20033;-36
2021/09/03 12:53:34;;;;;;;4.33;2.73;;;22.90;69.00;;;;;;5045328;28;20036;-37
2021/09/03 12:56:01;;;;;;;3.38;3.08;;;22.90;68.90;;;;;;5063017;28;20380;-37
2021/09/03 12:58:27;;;;;;;3.10;2.80;;;22.90;69.00;;;;;;5063223;28;20033;-37